createdAt,value
2023-01-13T00:01:47.464Z,76.47
2023-01-13T00:04:15.632Z,76.49
2023-01-13T00:06:42.604Z,76.59
2023-01-13T00:09:09.581Z,77.34
2023-01-13T00:11:36.853Z,77.21
2023-01-13T00:14:03.772Z,77.64
2023-01-13T00:16:32.181Z,77.23
2023-01-13T00:18:59.252Z,78.15
2023-01-13T00:21:26.174Z,77.90
2023-01-13T00:23:54.874Z,77.53
2023-01-13T00:26:26.583Z,78.50
2023-01-13T00:28:58.702Z,77.76
2023-01-13T00:31:32.194Z,76.85
2023-01-13T00:34:01.321Z,77.79
2023-01-13T00:36:29.305Z,78.08
2023-01-13T00:38:57.068Z,78.02
2023-01-13T00:41:26.934Z,78.17
2023-01-13T00:43:53.857Z,78.68
2023-01-13T00:46:24.114Z,78.79
2023-01-13T00:48:51.472Z,78.30
2023-01-13T00:51:20.463Z,77.34
2023-01-13T00:53:51.248Z,78.20
2023-01-13T00:56:34.070Z,77.68
2023-01-13T00:59:07.093Z,77.96
2023-01-13T01:01:34.112Z,78.85
2023-01-13T01:04:04.978Z,78.09
2023-01-13T01:06:35.518Z,79.48
2023-01-13T01:09:02.598Z,79.64
2023-01-13T01:11:31.640Z,80.50
2023-01-13T01:14:01.482Z,80.28
2023-01-13T01:16:33.178Z,80.48
2023-01-13T01:19:02.223Z,80.24
2023-01-13T01:21:29.845Z,80.14
2023-01-13T01:27:17.005Z,79.15
2023-01-13T01:29:47.649Z,77.46
2023-01-13T01:32:18.017Z,77.79
2023-01-13T01:34:45.479Z,78.71
2023-01-13T01:37:13.051Z,79.28
2023-01-13T01:39:41.510Z,78.42
2023-01-13T01:42:16.445Z,79.16
2023-01-13T01:44:58.763Z,78.80
2023-01-13T01:47:28.324Z,78.89
2023-01-13T01:49:57.443Z,79.60
2023-01-13T01:52:56.943Z,79.81
2023-01-13T01:55:29.970Z,80.46
2023-01-13T01:58:19.007Z,79.70
2023-01-13T02:00:48.520Z,79.06
2023-01-13T02:03:19.046Z,79.78
2023-01-13T02:05:46.553Z,81.02
2023-01-13T02:08:19.502Z,80.19
2023-01-13T02:10:53.265Z,79.53
2023-01-13T02:13:24.010Z,81.01
2023-01-13T02:16:19.692Z,80.50
2023-01-13T02:19:36.015Z,81.83
2023-01-13T02:22:28.862Z,81.23
2023-01-13T02:25:22.735Z,81.67
2023-01-13T02:28:11.455Z,81.03
2023-01-13T02:31:07.288Z,81.77
2023-01-13T02:33:50.747Z,82.05
2023-01-13T02:36:28.966Z,82.96
2023-01-13T02:39:25.449Z,83.26
2023-01-13T02:42:02.769Z,81.80
2023-01-13T02:44:38.676Z,82.84
2023-01-13T02:47:10.257Z,83.25
2023-01-13T02:50:05.836Z,82.65
2023-01-13T02:52:44.641Z,82.79
2023-01-13T02:55:20.208Z,81.87
2023-01-13T02:57:50.149Z,82.65
2023-01-13T03:00:23.978Z,83.19
2023-01-13T03:02:51.498Z,82.79
2023-01-13T03:05:21.489Z,83.26
2023-01-13T03:07:52.492Z,84.59
2023-01-13T03:10:46.966Z,84.57
2023-01-13T03:13:50.456Z,83.95
2023-01-13T03:16:52.048Z,83.90
2023-01-13T03:19:31.159Z,84.72
2023-01-13T03:22:17.022Z,84.67
2023-01-13T03:25:07.525Z,84.55
2023-01-13T03:27:58.414Z,84.56
2023-01-13T03:30:38.212Z,84.77
2023-01-13T03:33:19.120Z,82.93
2023-01-13T03:35:50.739Z,82.90
2023-01-13T03:38:39.368Z,82.86
2023-01-13T03:41:13.555Z,82.53
2023-01-13T03:43:49.446Z,82.00
2023-01-13T03:46:24.486Z,82.48
2023-01-13T03:51:57.492Z,81.34
2023-01-13T03:54:31.325Z,81.77
2023-01-13T03:57:30.125Z,81.10
2023-01-13T04:00:31.968Z,82.30
2023-01-13T04:03:09.046Z,82.07
2023-01-13T04:05:42.180Z,82.43
2023-01-13T04:08:28.184Z,82.22
2023-01-13T04:11:09.785Z,81.73
2023-01-13T04:13:44.965Z,81.13
2023-01-13T04:16:12.845Z,81.80
2023-01-13T04:21:35.945Z,82.50
2023-01-13T04:24:02.784Z,82.33
2023-01-13T04:26:32.002Z,82.13
2023-01-13T04:28:58.742Z,81.13
2023-01-13T04:31:25.673Z,81.85
2023-01-13T04:33:52.957Z,81.61
2023-01-13T04:36:19.773Z,82.53
2023-01-13T04:38:48.049Z,82.91
2023-01-13T04:41:15.333Z,83.20
2023-01-13T04:43:44.953Z,83.06
2023-01-13T04:46:13.639Z,82.95
2023-01-13T04:48:41.930Z,83.04
2023-01-13T04:51:12.369Z,82.87
2023-01-13T04:53:39.968Z,82.66
2023-01-13T04:56:07.679Z,83.61
2023-01-13T05:01:53.095Z,83.08
2023-01-13T05:04:19.890Z,84.33
2023-01-13T05:06:47.493Z,82.81
2023-01-13T05:09:14.420Z,84.39
2023-01-13T05:11:42.363Z,83.78
2023-01-13T05:14:09.541Z,82.58
2023-01-13T05:16:36.978Z,84.09
2023-01-13T05:19:03.900Z,84.67
2023-01-13T05:21:30.719Z,83.57
2023-01-13T05:23:57.473Z,84.21
2023-01-13T05:26:24.439Z,83.61
2023-01-13T05:28:51.172Z,84.13
2023-01-13T05:31:18.045Z,84.11
2023-01-13T05:33:46.056Z,83.48
2023-01-13T05:36:12.951Z,84.10
2023-01-13T05:38:39.722Z,84.38
2023-01-13T05:41:32.985Z,83.80
2023-01-13T05:44:00.395Z,84.08
2023-01-13T05:46:27.446Z,84.88
2023-01-13T05:48:54.259Z,84.05
2023-01-13T05:51:22.449Z,83.50
2023-01-13T05:53:49.187Z,84.76
2023-01-13T05:56:16.343Z,84.90
2023-01-13T05:58:43.087Z,85.02
2023-01-13T06:01:10.524Z,85.01
2023-01-13T06:03:38.291Z,84.07
2023-01-13T06:06:05.982Z,83.48
2023-01-13T06:08:32.947Z,83.27
2023-01-13T06:10:59.889Z,83.91
2023-01-13T06:13:27.043Z,83.84
2023-01-13T06:15:58.429Z,83.66
2023-01-13T06:18:25.863Z,82.95
2023-01-13T06:20:52.694Z,82.22
2023-01-13T06:23:19.523Z,82.92
2023-01-13T06:25:46.401Z,83.66
2023-01-13T06:28:13.200Z,83.25
2023-01-13T06:30:48.039Z,83.20
2023-01-13T06:33:24.741Z,84.23
2023-01-13T06:35:57.130Z,83.55
2023-01-13T06:38:26.454Z,83.68
2023-01-13T06:40:53.797Z,83.31
2023-01-13T06:43:22.173Z,83.59
2023-01-13T06:45:56.727Z,83.89
2023-01-13T06:48:30.003Z,83.94
2023-01-13T06:50:57.432Z,83.80
2023-01-13T06:53:24.154Z,84.38
2023-01-13T06:55:53.093Z,84.49
2023-01-13T06:58:19.806Z,84.36
2023-01-13T07:00:48.560Z,85.05
2023-01-13T07:03:17.148Z,85.32
2023-01-13T07:06:08.801Z,85.13
2023-01-13T07:08:36.953Z,86.10
2023-01-13T07:11:04.011Z,85.46
2023-01-13T07:13:32.125Z,84.77
2023-01-13T07:16:01.632Z,85.79
2023-01-13T07:18:36.153Z,85.22
2023-01-13T07:21:06.737Z,85.24
2023-01-13T07:23:36.923Z,84.25
2023-01-13T07:26:04.919Z,85.59
2023-01-13T07:28:33.125Z,84.47
2023-01-13T07:31:04.002Z,84.70
2023-01-13T07:33:30.860Z,85.17
2023-01-13T07:36:02.217Z,85.20
2023-01-13T07:38:31.821Z,84.62
2023-01-13T07:40:58.729Z,85.62
2023-01-13T07:43:25.545Z,85.24
2023-01-13T07:46:17.964Z,84.19
2023-01-13T07:48:46.568Z,84.17
2023-01-13T07:51:13.375Z,83.66
2023-01-13T07:53:40.458Z,83.16
2023-01-13T07:56:08.185Z,83.13
2023-01-13T07:58:37.023Z,83.81
2023-01-13T08:01:09.355Z,83.47
2023-01-13T08:03:36.473Z,83.22
2023-01-13T08:06:03.938Z,84.48
2023-01-13T08:08:30.772Z,83.72
2023-01-13T08:11:03.493Z,83.27
2023-01-13T08:13:30.999Z,82.82
2023-01-13T08:16:04.957Z,83.35
2023-01-13T08:18:34.057Z,83.00
2023-01-13T08:21:04.092Z,82.84
2023-01-13T08:23:56.978Z,81.06
2023-01-13T08:26:24.523Z,81.62
2023-01-13T08:28:52.041Z,82.57
2023-01-13T08:31:45.000Z,82.06
2023-01-13T08:34:12.374Z,81.85
2023-01-13T08:36:39.136Z,84.03
2023-01-13T08:39:07.060Z,83.48
2023-01-13T08:41:35.030Z,83.04
2023-01-13T08:44:02.626Z,82.72
2023-01-13T08:46:30.232Z,82.38
2023-01-13T08:48:57.616Z,82.46
2023-01-13T08:51:26.613Z,82.09
2023-01-13T08:53:54.016Z,82.50
2023-01-13T08:56:22.502Z,82.46
2023-01-13T08:58:49.257Z,82.09
2023-01-13T09:01:23.124Z,81.87
2023-01-13T09:03:54.234Z,81.98
2023-01-13T09:06:22.083Z,81.69
2023-01-13T09:08:48.869Z,82.28
2023-01-13T09:11:26.290Z,81.98
2023-01-13T09:13:53.441Z,81.67
2023-01-13T09:16:21.511Z,81.58
2023-01-13T09:18:49.978Z,80.94
2023-01-13T09:21:18.685Z,80.80
2023-01-13T09:23:45.976Z,81.04
2023-01-13T09:26:16.618Z,81.25
2023-01-13T09:28:45.972Z,80.70
2023-01-13T09:31:14.279Z,80.82
2023-01-13T09:33:46.041Z,80.86
2023-01-13T09:36:12.890Z,81.19
2023-01-13T09:38:39.959Z,80.85
2023-01-13T09:41:07.157Z,80.81
2023-01-13T09:43:39.124Z,80.65
2023-01-13T09:46:14.991Z,81.22
2023-01-13T09:49:14.504Z,81.39
2023-01-13T09:51:51.980Z,80.98
2023-01-13T09:54:28.713Z,81.33
2023-01-13T09:56:59.999Z,81.57
2023-01-13T09:59:31.243Z,82.00
2023-01-13T10:02:04.976Z,81.97
2023-01-13T10:04:33.657Z,81.97
2023-01-13T10:07:02.987Z,82.04
2023-01-13T10:09:58.487Z,82.38
2023-01-13T10:12:27.000Z,81.92
2023-01-13T10:14:56.075Z,82.02
2023-01-13T10:17:46.037Z,81.95
2023-01-13T10:20:43.564Z,82.47
2023-01-13T10:23:39.024Z,82.16
2023-01-13T10:26:22.583Z,81.52
2023-01-13T10:28:57.007Z,82.69
2023-01-13T10:31:25.101Z,82.36
2023-01-13T10:34:00.186Z,81.30
2023-01-13T10:36:28.017Z,80.08
2023-01-13T10:39:09.115Z,80.90
2023-01-13T10:41:36.088Z,80.20
2023-01-13T10:44:14.264Z,80.41
2023-01-13T10:46:56.060Z,80.59
2023-01-13T10:49:29.997Z,80.27
2023-01-13T10:51:57.525Z,79.80
2023-01-13T10:54:25.922Z,79.55
2023-01-13T10:57:32.237Z,79.60
2023-01-13T11:00:04.864Z,78.92
2023-01-13T11:02:35.039Z,78.99
2023-01-13T11:05:22.052Z,79.14
2023-01-13T11:07:55.422Z,78.78
2023-01-13T11:10:26.973Z,79.62
2023-01-13T11:13:03.052Z,79.42
2023-01-13T11:15:46.811Z,79.80
2023-01-13T11:18:58.750Z,79.58
2023-01-13T11:21:36.302Z,79.64
2023-01-13T11:24:41.074Z,79.61
2023-01-13T11:27:13.605Z,79.31
2023-01-13T11:29:58.562Z,79.21
2023-01-13T11:32:27.355Z,79.01
2023-01-13T11:35:02.190Z,79.15
2023-01-13T11:37:32.873Z,78.72
2023-01-13T11:40:25.074Z,78.40
2023-01-13T11:43:17.404Z,78.64
2023-01-13T11:45:52.041Z,78.31
2023-01-13T11:48:22.974Z,79.15
2023-01-13T11:51:00.194Z,78.53
2023-01-13T11:53:48.013Z,78.86
2023-01-13T11:56:46.119Z,78.34
2023-01-13T11:59:16.493Z,78.60
2023-01-13T12:02:23.084Z,78.58
2023-01-13T12:05:11.078Z,78.14
2023-01-13T12:08:05.013Z,78.10
2023-01-13T12:11:15.078Z,77.69
2023-01-13T12:13:47.106Z,77.20
2023-01-13T12:16:25.206Z,76.94
2023-01-13T12:19:22.607Z,77.14
2023-01-13T12:21:58.229Z,77.33
2023-01-13T12:24:41.160Z,76.02
2023-01-13T12:27:37.700Z,76.24
2023-01-13T12:30:26.128Z,76.88
2023-01-13T12:32:57.178Z,76.73
2023-01-13T12:35:42.981Z,76.91
2023-01-13T12:38:23.726Z,76.37
2023-01-13T12:41:39.997Z,75.88
2023-01-13T12:44:08.891Z,75.92
2023-01-13T12:46:46.105Z,76.33
2023-01-13T12:49:25.135Z,76.40
2023-01-13T12:51:51.921Z,76.33
2023-01-13T12:54:37.578Z,75.23
2023-01-13T12:57:17.072Z,74.99
2023-01-13T13:00:05.839Z,75.52
2023-01-13T13:02:35.114Z,75.41
2023-01-13T13:05:24.389Z,73.88
2023-01-13T13:08:24.340Z,73.44
2023-01-13T13:11:18.408Z,73.52
2023-01-13T13:13:48.829Z,72.95
2023-01-13T13:16:52.675Z,72.54
2023-01-13T13:19:20.398Z,71.59
2023-01-13T13:22:15.949Z,72.45
2023-01-13T13:25:03.903Z,72.31
2023-01-13T13:27:43.110Z,73.41
2023-01-13T13:30:25.358Z,73.25
2023-01-13T13:33:34.088Z,73.63
2023-01-13T13:36:20.867Z,74.36
2023-01-13T13:39:17.990Z,73.85
2023-01-13T13:41:48.195Z,73.48
2023-01-13T13:47:21.992Z,74.30
2023-01-13T13:49:51.941Z,73.85
2023-01-13T13:52:45.114Z,74.17
2023-01-13T13:55:23.636Z,73.44
2023-01-13T13:57:55.792Z,74.35
2023-01-13T14:00:23.409Z,73.68
2023-01-13T14:02:54.922Z,74.38
2023-01-13T14:05:29.881Z,74.26
2023-01-13T14:08:23.087Z,74.16
2023-01-13T14:11:30.390Z,73.14
2023-01-13T14:14:15.014Z,74.23
2023-01-13T14:16:42.820Z,74.04
2023-01-13T14:19:32.843Z,74.38
2023-01-13T14:22:25.485Z,73.10
2023-01-13T14:24:53.974Z,73.11
2023-01-13T14:27:21.941Z,73.81
2023-01-13T14:29:51.790Z,73.87
2023-01-13T14:32:23.917Z,74.14
2023-01-13T14:34:51.834Z,74.77
2023-01-13T14:40:35.066Z,75.38
2023-01-13T14:43:12.231Z,75.79
2023-01-13T14:45:55.490Z,75.74
2023-01-13T14:48:27.523Z,75.70
2023-01-13T14:50:54.350Z,75.78
2023-01-13T14:56:43.029Z,75.55
2023-01-13T14:59:32.161Z,75.36
2023-01-13T15:02:00.008Z,76.42
2023-01-13T15:04:32.467Z,76.34
2023-01-13T15:07:02.883Z,76.17
2023-01-13T15:09:38.853Z,76.66
2023-01-13T15:15:40.058Z,77.20
2023-01-13T15:18:16.145Z,77.27
2023-01-13T15:20:43.147Z,77.72
2023-01-13T15:23:10.736Z,77.26
2023-01-13T15:25:40.919Z,77.96
2023-01-13T15:28:20.951Z,78.08
2023-01-13T15:30:50.317Z,78.47
2023-01-13T15:33:18.327Z,78.40
2023-01-13T15:36:26.092Z,78.86
2023-01-13T15:38:54.931Z,78.97
2023-01-13T15:41:23.480Z,79.34
2023-01-13T15:43:50.267Z,79.29
2023-01-13T15:46:18.926Z,79.54
2023-01-13T15:48:50.619Z,79.99
2023-01-13T15:51:23.581Z,80.29
2023-01-13T15:53:50.404Z,80.36
2023-01-13T15:56:26.920Z,80.94
2023-01-13T15:58:53.982Z,81.04
2023-01-13T16:01:46.166Z,80.81
2023-01-13T16:04:13.289Z,80.86
2023-01-13T16:06:40.961Z,81.10
2023-01-13T16:09:12.443Z,81.22
2023-01-13T16:11:40.393Z,81.17
2023-01-13T16:14:07.436Z,81.19
2023-01-13T16:16:35.949Z,81.82
2023-01-13T16:19:02.992Z,82.06
2023-01-13T16:21:30.933Z,81.79
2023-01-13T16:24:23.020Z,82.56
2023-01-13T16:26:49.929Z,83.22
2023-01-13T16:29:17.298Z,82.46
2023-01-13T16:31:45.970Z,83.36
2023-01-13T16:34:13.387Z,84.46
2023-01-13T16:36:40.269Z,85.29
2023-01-13T16:39:20.142Z,85.06
2023-01-13T16:41:47.951Z,86.63
2023-01-13T16:44:15.555Z,87.58
2023-01-13T16:46:44.991Z,87.65
2023-01-13T16:49:16.716Z,88.57
2023-01-13T16:51:43.931Z,87.13
2023-01-13T16:54:11.406Z,89.12
2023-01-13T16:59:29.347Z,88.20
2023-01-13T17:01:57.443Z,88.69
2023-01-13T17:04:25.505Z,88.59
2023-01-13T17:07:03.012Z,89.12
2023-01-13T17:09:31.236Z,89.01
2023-01-13T17:11:59.320Z,88.37
2023-01-13T17:14:27.450Z,89.20
2023-01-13T17:16:58.554Z,88.79
2023-01-13T17:19:26.061Z,89.62
2023-01-13T17:21:53.938Z,89.97
2023-01-13T17:24:22.391Z,89.49
2023-01-13T17:26:52.544Z,90.39
2023-01-13T17:29:23.990Z,89.15
2023-01-13T17:31:53.445Z,88.67
2023-01-13T17:34:21.605Z,89.61
2023-01-13T17:42:59.296Z,89.42
2023-01-13T17:45:26.548Z,88.49
2023-01-13T17:47:59.409Z,89.64
2023-01-13T17:50:27.549Z,89.90
2023-01-13T17:52:54.443Z,89.51
2023-01-13T17:55:21.553Z,89.41
2023-01-13T17:57:49.570Z,89.34
2023-01-13T18:00:42.993Z,89.21
2023-01-13T18:03:12.611Z,89.47
2023-01-13T18:06:10.061Z,88.77
2023-01-13T18:08:39.713Z,88.75
2023-01-13T18:11:07.166Z,89.05
2023-01-13T18:13:36.284Z,89.16
2023-01-13T18:16:09.415Z,89.24
2023-01-13T18:18:37.171Z,89.09
2023-01-13T18:21:09.151Z,88.40
2023-01-13T18:23:40.386Z,87.92
2023-01-13T18:26:15.592Z,87.94
2023-01-13T18:28:43.317Z,89.36
2023-01-13T18:31:10.964Z,91.46
2023-01-13T18:33:39.076Z,90.39
2023-01-13T18:36:07.976Z,90.87
2023-01-13T18:38:36.015Z,91.54
2023-01-13T18:41:09.051Z,91.50
2023-01-13T18:43:36.174Z,91.36
2023-01-13T18:46:04.561Z,92.27
2023-01-13T18:48:36.487Z,91.81
2023-01-13T18:51:04.124Z,91.19
2023-01-13T18:53:31.042Z,91.23
2023-01-13T18:56:01.505Z,91.05
2023-01-13T18:58:29.058Z,91.38
2023-01-13T19:01:01.880Z,91.52
2023-01-13T19:03:30.729Z,91.20
2023-01-13T19:06:05.071Z,91.92
2023-01-13T19:08:33.326Z,92.28
2023-01-13T19:11:05.267Z,92.06
2023-01-13T19:13:35.008Z,91.33
2023-01-13T19:16:08.719Z,91.05
2023-01-13T19:18:38.008Z,91.88
2023-01-13T19:21:06.938Z,91.87
2023-01-13T19:23:36.384Z,92.66
2023-01-13T19:26:07.988Z,91.27
2023-01-13T19:28:36.675Z,91.64
2023-01-13T19:31:06.737Z,92.02
2023-01-13T19:33:40.995Z,92.35
2023-01-13T19:36:08.748Z,86.48
2023-01-13T19:38:37.645Z,80.85
2023-01-13T19:41:09.724Z,79.33
2023-01-13T19:43:45.368Z,77.00
2023-01-13T19:46:15.721Z,77.09
2023-01-13T19:48:43.259Z,75.11
2023-01-13T19:51:10.260Z,72.99
2023-01-13T19:53:38.762Z,72.66
2023-01-13T19:56:14.466Z,71.69
2023-01-13T19:58:42.965Z,71.22
2023-01-13T20:01:12.312Z,70.78
2023-01-13T20:03:42.255Z,71.26
2023-01-13T20:06:14.130Z,71.59
2023-01-13T20:08:41.059Z,71.05
2023-01-13T20:11:11.178Z,71.19
2023-01-13T20:13:38.531Z,71.47
2023-01-13T20:16:05.978Z,71.70
2023-01-13T20:18:34.047Z,71.59
2023-01-13T20:21:04.706Z,70.96
2023-01-13T20:23:33.245Z,71.29
2023-01-13T20:26:02.477Z,70.83
2023-01-13T20:28:29.675Z,71.51
2023-01-13T20:30:57.285Z,70.75
2023-01-13T20:33:24.318Z,70.75
2023-01-13T20:35:58.563Z,70.53
2023-01-13T20:38:26.515Z,71.27
2023-01-13T20:43:55.182Z,71.55
2023-01-13T20:46:23.187Z,71.41
2023-01-13T20:48:50.409Z,70.79
2023-01-13T20:51:18.741Z,71.06
2023-01-13T20:53:46.198Z,70.78
2023-01-13T20:56:14.542Z,70.76
2023-01-13T20:58:41.550Z,70.97
2023-01-13T21:01:08.631Z,70.93
2023-01-13T21:03:35.595Z,70.86
2023-01-13T21:06:02.403Z,71.79
2023-01-13T21:08:31.308Z,71.71
2023-01-13T21:11:06.009Z,71.54
2023-01-13T21:13:58.814Z,71.41
2023-01-13T21:16:27.685Z,71.63
2023-01-13T21:18:54.599Z,71.71
2023-01-13T21:21:24.982Z,71.23
2023-01-13T21:23:53.280Z,70.62
2023-01-13T21:26:22.236Z,71.04
2023-01-13T21:28:50.545Z,71.36
2023-01-13T21:31:18.061Z,71.11
2023-01-13T21:33:45.191Z,71.38
2023-01-13T21:36:16.892Z,71.06
2023-01-13T21:38:50.982Z,70.70
2023-01-13T21:41:18.557Z,70.23
2023-01-13T21:43:46.335Z,70.00
2023-01-13T21:46:16.390Z,70.48
2023-01-13T21:48:45.029Z,70.57
2023-01-13T21:51:37.276Z,70.59
2023-01-13T21:54:05.032Z,70.73
2023-01-13T21:56:32.473Z,70.63
2023-01-13T21:58:59.921Z,70.52
2023-01-13T22:01:28.892Z,70.47
2023-01-13T22:03:55.976Z,70.70
2023-01-13T22:06:24.058Z,71.00
2023-01-13T22:08:50.933Z,70.64
2023-01-13T22:11:18.034Z,69.79
2023-01-13T22:13:47.984Z,69.82
2023-01-13T22:16:15.271Z,69.55
2023-01-13T22:18:42.091Z,69.95
2023-01-13T22:21:09.231Z,69.69
2023-01-13T22:23:36.706Z,70.15
2023-01-13T22:26:05.653Z,69.90
2023-01-13T22:28:32.533Z,70.65
2023-01-13T22:30:59.622Z,70.74
2023-01-13T22:33:29.069Z,70.83
2023-01-13T22:35:56.524Z,70.78
2023-01-13T22:38:23.377Z,70.48
2023-01-13T22:41:01.793Z,70.34
2023-01-13T22:43:30.407Z,70.52
2023-01-13T22:46:05.845Z,70.43
2023-01-13T22:48:57.976Z,70.92
2023-01-13T22:51:25.119Z,70.53
2023-01-13T22:53:57.095Z,70.35
2023-01-13T22:56:26.138Z,71.20
2023-01-13T22:58:59.504Z,70.34
2023-01-13T23:04:20.781Z,70.65
2023-01-13T23:06:47.710Z,71.16
2023-01-13T23:09:14.644Z,71.09
2023-01-13T23:11:42.097Z,71.25
2023-01-13T23:14:11.020Z,71.68
2023-01-13T23:16:39.697Z,71.80
2023-01-13T23:19:08.337Z,71.58
2023-01-13T23:21:37.590Z,71.16
2023-01-13T23:24:06.390Z,71.24
2023-01-13T23:26:34.101Z,71.26
2023-01-13T23:29:09.074Z,71.36
2023-01-13T23:31:36.034Z,71.83
2023-01-13T23:34:03.023Z,71.35
2023-01-13T23:36:30.175Z,71.09
2023-01-13T23:38:59.217Z,71.32
2023-01-13T23:41:29.703Z,71.23
2023-01-13T23:43:59.706Z,71.22
2023-01-13T23:46:32.230Z,71.30
2023-01-13T23:49:00.938Z,71.11
2023-01-13T23:51:28.545Z,71.21
2023-01-13T23:56:51.040Z,71.35
2023-01-13T23:59:20.280Z,70.99
